Time;durP1;ratioP1;P1;durP2;ratioP2;P2;SDS_P1;SDS_P2;PMS_P1;PMS_P2;Temp;Humidity;BMP_temperature;BMP_pressure;BME280_temperature;BME280_humidity;BME280_pressure;Samples;Min_cycle;Max_cycle;Signal;HPM_P1;HPM_P2
2024/01/02 00:00:36;;;;;;;12.82;8.13;;;;;;;;;;5032429;28;20602;-77
2024/01/02 00:03:02;;;;;;;;;;;;;;;;;;5023279;28;20453;-77
2024/01/02 00:05:27;;;;;;;14.27;7.95;;;;;;;;;;5032196;28;19925;-77
2024/01/02 00:07:53;;;;;;;;;;;;;;;;;;5030749;28;20040;-77
2024/01/02 00:10:18;;;;;;;12.00;7.20;;;;;;;;;;5032124;28;20007;-77
2024/01/02 00:12:43;;;;;;;;;;;;;;;;;;5031831;28;20055;-77
2024/01/02 00:15:09;;;;;;;13.93;7.88;;;;;;;;;;5032212;28;19908;-77
2024/01/02 00:17:35;;;;;;;13.57;8.05;;;;;;;;;;5032127;28;20042;-77
2024/01/02 00:20:00;;;;;;;13.32;8.05;;;;;;;;;;5030370;28;20559;-76
2024/01/02 00:22:26;;;;;;;;;;;;;;;;;;5031128;28;20495;-77
2024/01/02 00:24:51;;;;;;;12.13;7.25;;;;;;;;;;5031538;28;19909;-77
2024/01/02 00:27:17;;;;;;;;;;;;;;;;;;5031196;28;20522;-77
2024/01/02 00:29:42;;;;;;;16.98;8.23;;;;;;;;;;5030449;28;19967;-77
2024/01/02 00:32:08;;;;;;;14.13;8.35;;;;;;;;;;5030355;28;20513;-77
2024/01/02 00:34:33;;;;;;;16.00;8.02;;;;;;;;;;5013357;28;20028;-77
2024/01/02 00:36:59;;;;;;;13.27;7.70;;;;;;;;;;5010694;28;20045;-77
2024/01/02 00:39:25;;;;;;;15.18;8.10;;;;;;;;;;5027995;28;20021;-76
2024/01/02 00:41:51;;;;;;;15.05;8.10;;;;;;;;;;5030271;28;20036;-76
2024/01/02 00:44:16;;;;;;;15.50;8.85;;;;;;;;;;5029411;28;20424;-77
2024/01/02 00:46:42;;;;;;;15.07;8.43;;;;;;;;;;5041655;28;20045;-78
2024/01/02 00:49:07;;;;;;;12.90;8.25;;;;;;;;;;5030521;28;20024;-77
2024/01/02 00:51:33;;;;;;;;;;;;;;;;;;5043212;28;20038;-77
2024/01/02 00:54:01;;;;;;;13.57;8.27;;;;;;;;;;5027965;28;20379;-77
2024/01/02 00:56:27;;;;;;;13.82;8.35;;;;;;;;;;5024086;28;20045;-77
2024/01/02 00:58:52;;;;;;;13.45;8.18;;;;;;;;;;5030707;28;20017;-77
2024/01/02 01:01:18;;;;;;;;;;;;;;;;;;5024834;28;20493;-76
2024/01/02 01:03:44;;;;;;;23.48;8.55;;;;;;;;;;5031098;28;20003;-77
2024/01/02 01:06:09;;;;;;;;;;;;;;;;;;5022737;28;20045;-76
2024/01/02 01:08:34;;;;;;;13.32;7.97;;;;;;;;;;5030476;28;20398;-76
2024/01/02 01:11:00;;;;;;;15.93;8.38;;;;;;;;;;5022089;28;20038;-76
2024/01/02 01:13:26;;;;;;;13.82;8.15;;;;;;;;;;5029575;28;20030;-76
2024/01/02 01:15:51;;;;;;;;;;;;;;;;;;5030184;28;20068;-76
2024/01/02 01:18:16;;;;;;;13.80;7.47;;;;;;;;;;5033145;28;19909;-76
2024/01/02 01:20:42;;;;;;;13.85;7.95;;;;;;;;;;5015206;28;20377;-77
2024/01/02 01:23:07;;;;;;;;;;;;;;;;;;5015054;28;20190;-77
2024/01/02 01:25:33;;;;;;;13.68;7.88;;;;;;;;;;5045880;28;20307;-77
2024/01/02 01:27:58;;;;;;;;;;;;;;;;;;5029670;28;20037;-76
2024/01/02 01:30:24;;;;;;;11.55;7.03;;;;;;;;;;5033423;28;19913;-76
2024/01/02 01:32:49;;;;;;;13.45;8.13;;;;;;;;;;5027366;28;20029;-76
2024/01/02 01:35:15;;;;;;;;;;;;;;;;;;5000953;28;20029;-76
2024/01/02 01:37:40;;;;;;;11.90;7.35;;;;;;;;;;5033137;28;19916;-77
2024/01/02 01:40:06;;;;;;;11.80;7.38;;;;;;;;;;5031884;28;20083;-77
2024/01/02 01:42:31;;;;;;;12.95;7.57;;;;;;;;;;5033586;28;20112;-76
2024/01/02 01:44:57;;;;;;;;;;;;;;;;;;5033408;28;20080;-77
2024/01/02 01:47:22;;;;;;;14.25;8.10;;;;;;;;;;5028376;28;19963;-76
2024/01/02 01:49:48;;;;;;;12.75;7.28;;;;;;;;;;5033323;28;20116;-76
2024/01/02 01:52:13;;;;;;;;;;;;;;;;;;5012950;28;20079;-76
2024/01/02 01:54:39;;;;;;;14.23;7.82;;;;;;;;;;5029066;28;19917;-77
2024/01/02 01:57:04;;;;;;;;;;;;;;;;;;5019374;28;20025;-77
2024/01/02 01:59:31;;;;;;;13.50;8.15;;;;;;;;;;5038524;28;19912;-77
2024/01/02 02:01:57;;;;;;;13.65;7.90;;;;;;;;;;5002114;28;20488;-77
2024/01/02 02:04:23;;;;;;;14.57;8.02;;;;;;;;;;5013818;28;20083;-77
2024/01/02 02:06:48;;;;;;;15.98;8.63;;;;;;;;;;5020032;28;20053;-77
2024/01/02 02:09:13;;;;;;;;;;;;;;;;;;5013092;28;20041;-76
2024/01/02 02:11:39;;;;;;;14.05;7.65;;;;;;;;;;5038611;28;20350;-76
2024/01/02 02:14:04;;;;;;;13.60;7.68;;;;;;;;;;5026205;28;20116;-76
2024/01/02 02:16:30;;;;;;;;;;;;;;;;;;5029477;28;20056;-76
2024/01/02 02:18:55;;;;;;;14.18;7.88;;;;;;;;;;5032771;28;19924;-76
2024/01/02 02:21:21;;;;;;;14.70;7.90;;;;;;;;;;5028991;28;20464;-76
2024/01/02 02:23:47;;;;;;;12.15;7.15;;;;;;;;;;5022429;28;20065;-76
2024/01/02 02:26:12;;;;;;;13.80;6.95;;;;;;;;;;5022733;28;20124;-76
2024/01/02 02:28:38;;;;;;;14.30;8.35;;;;;;;;;;5015653;28;20064;-76
2024/01/02 02:31:03;;;;;;;13.45;7.32;;;;;;;;;;5029007;28;20510;-76
2024/01/02 02:33:30;;;;;;;14.13;7.63;;;;;;;;;;5043693;28;20029;-77
2024/01/02 02:35:56;;;;;;;12.65;8.05;;;;;;;;;;5031585;28;20126;-76
2024/01/02 02:38:23;;;;;;;12.30;7.50;;;;;;;;;;5047560;28;20099;-76
2024/01/02 02:40:48;;;;;;;13.82;7.20;;;;;;;;;;5032600;28;20492;-75
2024/01/02 02:43:14;;;;;;;12.38;7.28;;;;;;;;;;5033604;28;20095;-75
2024/01/02 02:45:39;;;;;;;;;;;;;;;;;;5034276;28;20572;-76
2024/01/02 02:48:05;;;;;;;13.73;7.93;;;;;;;;;;5045244;28;20313;-76
2024/01/02 02:50:30;;;;;;;13.05;7.30;;;;;;;;;;5010250;28;20174;-76
2024/01/02 02:52:56;;;;;;;14.02;7.97;;;;;;;;;;5033522;28;20444;-79
2024/01/02 02:55:21;;;;;;;15.27;7.68;;;;;;;;;;5012994;28;20018;-77
2024/01/02 02:57:47;;;;;;;15.77;7.55;;;;;;;;;;5028413;28;20145;-77
2024/01/02 03:00:13;;;;;;;13.73;7.70;;;;;;;;;;5026978;28;20400;-77
2024/01/02 03:02:38;;;;;;;;;;;;;;;;;;5023010;28;20099;-77
2024/01/02 03:05:04;;;;;;;14.90;7.93;;;;;;;;;;5033090;28;19916;-77
2024/01/02 03:07:29;;;;;;;;;;;;;;;;;;5032321;28;20048;-77
2024/01/02 03:09:55;;;;;;;15.75;7.75;;;;;;;;;;5032170;28;19909;-77
2024/01/02 03:12:20;;;;;;;12.18;7.22;;;;;;;;;;5032903;28;20069;-76
2024/01/02 03:14:46;;;;;;;13.77;7.47;;;;;;;;;;5033828;28;20030;-76
2024/01/02 03:17:12;;;;;;;13.52;7.28;;;;;;;;;;5033692;28;20068;-77
2024/01/02 03:19:37;;;;;;;13.52;7.78;;;;;;;;;;5031868;28;20037;-77
2024/01/02 03:22:04;;;;;;;;;;;;;;;;;;5032052;28;20521;-78
2024/01/02 03:24:29;;;;;;;13.80;7.32;;;;;;;;;;5033167;28;20007;-77
2024/01/02 03:26:54;;;;;;;14.35;7.93;;;;;;;;;;5033058;28;20451;-77
2024/01/02 03:29:21;;;;;;;;;;;;;;;;;;5032188;28;20033;-76
2024/01/02 03:31:46;;;;;;;13.32;7.32;;;;;;;;;;5031121;28;19916;-77
2024/01/02 03:34:12;;;;;;;13.95;7.28;;;;;;;;;;5031792;28;20048;-76
2024/01/02 03:36:37;;;;;;;13.50;8.00;;;;;;;;;;5032526;28;20091;-77
2024/01/02 03:39:03;;;;;;;15.05;8.10;;;;;;;;;;5032405;28;20020;-76
2024/01/02 03:41:29;;;;;;;13.52;7.80;;;;;;;;;;5015287;28;20037;-76
2024/01/02 03:43:54;;;;;;;14.75;7.53;;;;;;;;;;5032255;28;20034;-76
2024/01/02 03:46:20;;;;;;;15.65;7.47;;;;;;;;;;5030699;28;20042;-77
2024/01/02 03:48:45;;;;;;;14.63;7.55;;;;;;;;;;5031135;28;20030;-77
2024/01/02 03:51:11;;;;;;;15.75;7.43;;;;;;;;;;5032301;28;20419;-77
2024/01/02 03:53:36;;;;;;;12.48;7.25;;;;;;;;;;5039301;28;20204;-77
2024/01/02 03:56:02;;;;;;;15.30;8.38;;;;;;;;;;5032015;28;20033;-77
2024/01/02 03:58:27;;;;;;;14.48;7.85;;;;;;;;;;5039790;28;20029;-77
2024/01/02 04:00:53;;;;;;;14.68;7.97;;;;;;;;;;5031765;28;20408;-77
2024/01/02 04:03:18;;;;;;;13.93;7.55;;;;;;;;;;5022677;28;20192;-77
2024/01/02 04:05:44;;;;;;;16.58;8.50;;;;;;;;;;5032006;28;20373;-77
2024/01/02 04:08:09;;;;;;;13.68;8.27;;;;;;;;;;5032254;28;20028;-77
2024/01/02 04:10:36;;;;;;;16.83;9.02;;;;;;;;;;5032047;28;20037;-76
2024/01/02 04:13:02;;;;;;;15.63;7.68;;;;;;;;;;5030998;28;20399;-75
2024/01/02 04:15:27;;;;;;;14.77;8.07;;;;;;;;;;5030627;28;20025;-76
2024/01/02 04:17:53;;;;;;;13.15;7.68;;;;;;;;;;5015434;28;20057;-76
2024/01/02 04:20:18;;;;;;;14.95;8.13;;;;;;;;;;5015177;28;20033;-76
2024/01/02 04:22:43;;;;;;;15.85;7.68;;;;;;;;;;5031575;28;20057;-76
2024/01/02 04:25:09;;;;;;;;;;;;;;;;;;5033220;28;20044;-76
2024/01/02 04:27:34;;;;;;;14.00;7.57;;;;;;;;;;5034363;28;19909;-76
2024/01/02 04:30:00;;;;;;;14.85;8.18;;;;;;;;;;5035995;28;20450;-77
2024/01/02 04:32:25;;;;;;;15.73;8.07;;;;;;;;;;5033111;28;20091;-76
2024/01/02 04:34:51;;;;;;;;;;;;;;;;;;5033157;28;20037;-76
2024/01/02 04:37:17;;;;;;;18.30;8.45;;;;;;;;;;5035328;28;19955;-76
2024/01/02 04:39:43;;;;;;;15.18;7.60;;;;;;;;;;5030292;28;20064;-77
2024/01/02 04:42:08;;;;;;;12.05;7.38;;;;;;;;;;5036275;28;20063;-77
2024/01/02 04:44:34;;;;;;;;;;;;;;;;;;5039560;28;20071;-77
2024/01/02 04:46:59;;;;;;;16.27;8.60;;;;;;;;;;5032306;28;19916;-78
2024/01/02 04:49:26;;;;;;;15.88;8.82;;;;;;;;;;5029816;28;20451;-77
2024/01/02 04:51:51;;;;;;;15.98;8.88;;;;;;;;;;5013822;28;20026;-77
2024/01/02 04:54:17;;;;;;;16.25;8.65;;;;;;;;;;5030110;28;20083;-77
2024/01/02 04:56:44;;;;;;;16.00;8.48;;;;;;;;;;5026760;28;20132;-76
2024/01/02 04:59:10;;;;;;;15.57;8.52;;;;;;;;;;5028391;28;20116;-77
2024/01/02 05:01:37;;;;;;;16.52;9.35;;;;;;;;;;5030827;28;20562;-76
2024/01/02 05:04:03;;;;;;;17.52;8.75;;;;;;;;;;5029720;28;20523;-76
2024/01/02 05:06:29;;;;;;;17.90;9.70;;;;;;;;;;5015810;28;20044;-76
2024/01/02 05:08:54;;;;;;;18.40;9.45;;;;;;;;;;5013851;28;20025;-76
2024/01/02 05:11:20;;;;;;;18.02;9.85;;;;;;;;;;5034083;28;20021;-76
2024/01/02 05:13:45;;;;;;;19.58;9.60;;;;;;;;;;5027646;28;20029;-79
2024/01/02 05:16:12;;;;;;;16.30;8.65;;;;;;;;;;5029937;28;20468;-77
2024/01/02 05:18:37;;;;;;;19.13;9.27;;;;;;;;;;5029532;28;20112;-78
2024/01/02 05:21:03;;;;;;;18.40;9.07;;;;;;;;;;5035897;28;20120;-77
2024/01/02 05:23:28;;;;;;;18.00;8.82;;;;;;;;;;5031701;28;20037;-76
2024/01/02 05:25:54;;;;;;;18.05;9.68;;;;;;;;;;5019007;28;20061;-77
2024/01/02 05:28:20;;;;;;;20.08;9.30;;;;;;;;;;5029863;28;20033;-77
2024/01/02 05:30:45;;;;;;;16.77;9.35;;;;;;;;;;5031211;28;20029;-77
2024/01/02 05:33:11;;;;;;;19.45;9.98;;;;;;;;;;5012793;28;20037;-77
2024/01/02 05:35:36;;;;;;;17.15;8.63;;;;;;;;;;5022615;28;20033;-77
2024/01/02 05:38:03;;;;;;;17.27;9.18;;;;;;;;;;5030881;28;20034;-77
2024/01/02 05:40:28;;;;;;;16.98;9.43;;;;;;;;;;5029401;28;20527;-77
2024/01/02 05:42:54;;;;;;;16.10;8.57;;;;;;;;;;5029581;28;20049;-78
2024/01/02 05:45:19;;;;;;;19.80;10.07;;;;;;;;;;5013158;28;20050;-79
2024/01/02 05:47:45;;;;;;;18.30;9.55;;;;;;;;;;5029992;28;20044;-77
2024/01/02 05:50:10;;;;;;;17.15;9.95;;;;;;;;;;5029179;28;20027;-77
2024/01/02 05:52:36;;;;;;;20.30;9.75;;;;;;;;;;5029867;28;20127;-78
2024/01/02 05:55:01;;;;;;;16.73;8.55;;;;;;;;;;5030323;28;20511;-76
2024/01/02 05:57:27;;;;;;;17.45;9.50;;;;;;;;;;5029255;28;20403;-78
2024/01/02 05:59:52;;;;;;;18.67;9.50;;;;;;;;;;5029887;28;20029;-76
2024/01/02 06:02:18;;;;;;;23.55;9.80;;;;;;;;;;5030583;28;20045;-77
2024/01/02 06:04:43;;;;;;;18.17;9.27;;;;;;;;;;5029408;28;20037;-76
2024/01/02 06:07:09;;;;;;;18.08;9.73;;;;;;;;;;5030083;28;20029;-77
2024/01/02 06:09:34;;;;;;;18.02;9.75;;;;;;;;;;5032208;28;20404;-77
2024/01/02 06:12:00;;;;;;;17.88;9.00;;;;;;;;;;5032485;28;20480;-77
2024/01/02 06:14:25;;;;;;;16.60;9.27;;;;;;;;;;5014593;28;20026;-76
2024/01/02 06:16:50;;;;;;;17.40;8.50;;;;;;;;;;5030007;28;20088;-76
2024/01/02 06:19:19;;;;;;;16.58;8.82;;;;;;;;;;5034438;28;20097;-77
2024/01/02 06:21:44;;;;;;;15.02;7.60;;;;;;;;;;5032762;28;20079;-77
2024/01/02 06:24:10;;;;;;;14.52;8.38;;;;;;;;;;5016445;28;20029;-76
2024/01/02 06:26:36;;;;;;;19.88;9.13;;;;;;;;;;5032414;28;20120;-76
2024/01/02 06:29:01;;;;;;;16.33;8.48;;;;;;;;;;5033720;28;20106;-76
2024/01/02 06:31:27;;;;;;;14.70;6.80;;;;;;;;;;5032195;28;20037;-77
2024/01/02 06:33:52;;;;;;;15.32;8.82;;;;;;;;;;4998746;28;20125;-77
2024/01/02 06:36:18;;;;;;;14.48;7.80;;;;;;;;;;5029431;28;20061;-78
2024/01/02 06:38:43;;;;;;;14.95;8.52;;;;;;;;;;5034608;28;20032;-78
2024/01/02 06:41:09;;;;;;;15.38;8.48;;;;;;;;;;5045765;28;20041;-78
2024/01/02 06:43:34;;;;;;;14.45;7.40;;;;;;;;;;5034282;28;20021;-76
2024/01/02 06:46:00;;;;;;;15.18;8.15;;;;;;;;;;5038144;28;20057;-77
2024/01/02 06:48:27;;;;;;;15.75;7.25;;;;;;;;;;5033909;28;20037;-77
2024/01/02 06:50:53;;;;;;;14.65;7.85;;;;;;;;;;5033677;28;20491;-77
2024/01/02 06:53:18;;;;;;;16.20;8.18;;;;;;;;;;5012880;28;20026;-77
2024/01/02 06:55:43;;;;;;;14.35;7.32;;;;;;;;;;5030505;28;20025;-76
2024/01/02 06:58:09;;;;;;;15.38;7.35;;;;;;;;;;5034159;28;20018;-76
2024/01/02 07:00:34;;;;;;;12.55;6.85;;;;;;;;;;5034610;28;20037;-76
2024/01/02 07:03:00;;;;;;;11.20;6.43;;;;;;;;;;5024266;28;20057;-76
2024/01/02 07:05:25;;;;;;;13.57;6.90;;;;;;;;;;5017359;28;20120;-76
2024/01/02 07:07:51;;;;;;;12.82;7.13;;;;;;;;;;5040688;28;20021;-76
2024/01/02 07:10:16;;;;;;;10.43;6.03;;;;;;;;;;5029194;28;20713;-78
2024/01/02 07:12:42;;;;;;;13.15;6.90;;;;;;;;;;5048401;28;20025;-76
2024/01/02 07:15:07;;;;;;;12.68;6.80;;;;;;;;;;5015796;28;20033;-78
2024/01/02 07:17:33;;;;;;;12.13;6.90;;;;;;;;;;5032089;28;20025;-77
2024/01/02 07:20:00;;;;;;;11.68;6.47;;;;;;;;;;5012845;28;20034;-77
2024/01/02 07:22:26;;;;;;;11.85;6.03;;;;;;;;;;5010417;28;20477;-78
2024/01/02 07:24:52;;;;;;;13.77;7.38;;;;;;;;;;5012078;28;20034;-77
2024/01/02 07:27:18;;;;;;;13.43;7.72;;;;;;;;;;4996816;28;20079;-77
2024/01/02 07:29:43;;;;;;;13.18;6.88;;;;;;;;;;5011953;28;20057;-77
2024/01/02 07:32:10;;;;;;;12.27;6.50;;;;;;;;;;5028190;28;20108;-77
2024/01/02 07:34:35;;;;;;;12.55;7.20;;;;;;;;;;5031509;28;20037;-77
2024/01/02 07:37:00;;;;;;;11.00;6.00;;;;;;;;;;5029962;28;20018;-76
2024/01/02 07:39:26;;;;;;;10.80;5.95;;;;;;;;;;5027843;28;20030;-77
2024/01/02 07:41:51;;;;;;;13.18;6.78;;;;;;;;;;5029571;28;20026;-77
2024/01/02 07:44:17;;;;;;;13.25;6.40;;;;;;;;;;5029446;28;20544;-77
2024/01/02 07:46:43;;;;;;;20.42;10.65;;;;;;;;;;5027994;28;20048;-77
2024/01/02 07:49:08;;;;;;;15.48;9.43;;;;;;;;;;5024132;28;20033;-78
2024/01/02 07:51:34;;;;;;;12.65;7.10;;;;;;;;;;5025464;28;20029;-76
2024/01/02 07:53:59;;;;;;;16.40;9.20;;;;;;;;;;5010705;28;20037;-77
2024/01/02 07:56:26;;;;;;;13.48;7.70;;;;;;;;;;5025872;28;20028;-77
2024/01/02 07:58:51;;;;;;;11.82;6.80;;;;;;;;;;5011761;28;20056;-76
2024/01/02 08:01:17;;;;;;;13.35;6.65;;;;;;;;;;5029739;28;20029;-77
2024/01/02 08:03:43;;;;;;;12.30;6.38;;;;;;;;;;5029322;28;20037;-77
2024/01/02 08:06:09;;;;;;;11.82;6.22;;;;;;;;;;5000268;28;20045;-78
2024/01/02 08:08:34;;;;;;;12.05;6.47;;;;;;;;;;5030072;28;20030;-77
2024/01/02 08:11:00;;;;;;;10.95;6.22;;;;;;;;;;5028213;28;20025;-77
2024/01/02 08:13:25;;;;;;;11.02;6.45;;;;;;;;;;5029798;28;20034;-78
2024/01/02 08:15:51;;;;;;;12.18;6.28;;;;;;;;;;5028469;28;20028;-79
2024/01/02 08:18:16;;;;;;;14.88;6.82;;;;;;;;;;5024239;28;20532;-77
2024/01/02 08:20:42;;;;;;;13.43;6.40;;;;;;;;;;5025715;28;20028;-76
2024/01/02 08:23:07;;;;;;;12.27;6.13;;;;;;;;;;5021611;28;20041;-77
2024/01/02 08:25:34;;;;;;;10.80;6.32;;;;;;;;;;5026682;28;20153;-77
2024/01/02 08:28:00;;;;;;;11.57;6.00;;;;;;;;;;5027043;28;20120;-78
2024/01/02 08:30:25;;;;;;;11.38;5.72;;;;;;;;;;5027991;28;20048;-78
2024/01/02 08:32:50;;;;;;;8.77;5.63;;;;;;;;;;5028971;28;20033;-78
2024/01/02 08:35:16;;;;;;;12.43;5.50;;;;;;;;;;5028574;28;20470;-77
2024/01/02 08:37:42;;;;;;;11.70;5.95;;;;;;;;;;5022490;28;20653;-78
2024/01/02 08:40:08;;;;;;;12.27;6.47;;;;;;;;;;5010791;28;21489;-76
2024/01/02 08:42:34;;;;;;;15.23;6.25;;;;;;;;;;5025537;28;20046;-76
2024/01/02 08:44:59;;;;;;;12.52;6.53;;;;;;;;;;5026610;28;20050;-76
2024/01/02 08:47:25;;;;;;;10.77;5.53;;;;;;;;;;5008535;28;20037;-76
2024/01/02 08:49:50;;;;;;;10.45;6.28;;;;;;;;;;5022818;28;20029;-77
2024/01/02 08:52:16;;;;;;;10.43;6.03;;;;;;;;;;5029438;28;20041;-77
2024/01/02 08:54:41;;;;;;;11.80;6.57;;;;;;;;;;5024730;28;20025;-77
2024/01/02 08:57:07;;;;;;;13.23;5.85;;;;;;;;;;5028224;28;20113;-78
2024/01/02 08:59:32;;;;;;;11.57;5.93;;;;;;;;;;5011294;28;20014;-77
2024/01/02 09:01:58;;;;;;;11.25;5.85;;;;;;;;;;5025748;28;20425;-78
2024/01/02 09:04:24;;;;;;;11.20;6.13;;;;;;;;;;5026717;28;20030;-77
2024/01/02 09:06:51;;;;;;;12.18;6.03;;;;;;;;;;5029146;28;20069;-77
2024/01/02 09:09:17;;;;;;;11.75;5.40;;;;;;;;;;5027682;28;20182;-77
2024/01/02 09:11:42;;;;;;;12.40;6.28;;;;;;;;;;5027699;28;20029;-78
2024/01/02 09:14:08;;;;;;;13.40;6.60;;;;;;;;;;5027906;28;20474;-78
2024/01/02 09:16:35;;;;;;;10.70;6.20;;;;;;;;;;5025638;28;20343;-78
2024/01/02 09:19:01;;;;;;;9.98;5.65;;;;;;;;;;5028531;28;20693;-76
2024/01/02 09:21:27;;;;;;;11.52;5.75;;;;;;;;;;5009145;28;20099;-78
2024/01/02 09:23:53;;;;;;;11.85;5.78;;;;;;;;;;5025883;28;20025;-78
2024/01/02 09:26:22;;;;;;;10.85;5.00;;;;;;;;;;5038050;28;20041;-77
2024/01/02 09:28:47;;;;;;;12.75;5.65;;;;;;;;;;5010000;28;20031;-78
2024/01/02 09:31:13;;;;;;;12.38;6.82;;;;;;;;;;5001514;28;20042;-77
2024/01/02 09:33:39;;;;;;;14.00;6.22;;;;;;;;;;5023314;28;20029;-77
2024/01/02 09:36:10;;;;;;;10.25;6.20;;;;;;;;;;5037121;28;20120;-76
2024/01/02 09:38:39;;;;;;;10.80;5.55;;;;;;;;;;4993777;28;20440;-77
2024/01/02 09:41:17;;;;;;;8.55;5.05;;;;;;;;;;5023644;28;20083;-77
2024/01/02 09:43:55;;;;;;;13.15;6.05;;;;;;;;;;5025342;28;20029;-77
2024/01/02 09:46:25;;;;;;;10.77;5.82;;;;;;;;;;5023729;28;20049;-77
2024/01/02 09:48:55;;;;;;;10.57;6.07;;;;;;;;;;5023383;28;20487;-77
2024/01/02 09:51:27;;;;;;;10.07;5.88;;;;;;;;;;5023838;28;20481;-76
2024/01/02 09:54:12;;;;;;;11.52;6.60;;;;;;;;;;5027454;28;20025;-77
2024/01/02 09:56:43;;;;;;;13.40;6.45;;;;;;;;;;5016717;28;20586;-77
2024/01/02 09:59:27;;;;;;;10.85;5.55;;;;;;;;;;5023976;28;20038;-77
2024/01/02 10:01:58;;;;;;;9.95;5.60;;;;;;;;;;5027663;28;20033;-77
2024/01/02 10:04:34;;;;;;;10.57;5.80;;;;;;;;;;5018088;28;20057;-78
2024/01/02 10:07:13;;;;;;;10.27;5.05;;;;;;;;;;5023249;28;20081;-78
2024/01/02 10:09:58;;;;;;;10.98;5.68;;;;;;;;;;5023784;28;20120;-77
2024/01/02 10:12:42;;;;;;;13.90;5.97;;;;;;;;;;5013283;28;20034;-78
2024/01/02 10:15:34;;;;;;;17.95;6.40;;;;;;;;;;5028081;28;20484;-77
2024/01/02 10:18:17;;;;;;;13.43;6.38;;;;;;;;;;5020530;28;20044;-78
2024/01/02 10:20:47;;;;;;;14.57;7.13;;;;;;;;;;5024431;28;20496;-78
2024/01/02 10:23:18;;;;;;;10.68;6.13;;;;;;;;;;5026763;28;20021;-77
2024/01/02 10:25:45;;;;;;;10.95;6.00;;;;;;;;;;5019746;28;20057;-78
2024/01/02 10:28:14;;;;;;;11.90;6.20;;;;;;;;;;4996765;28;20050;-79
2024/01/02 10:30:54;;;;;;;11.90;6.03;;;;;;;;;;5037456;28;20028;-77
2024/01/02 10:33:31;;;;;;;17.10;6.47;;;;;;;;;;5023986;28;20036;-77
2024/01/02 10:36:24;;;;;;;13.48;7.25;;;;;;;;;;5009671;28;20033;-77
2024/01/02 10:38:55;;;;;;;12.52;5.63;;;;;;;;;;5013271;28;20127;-77
2024/01/02 10:41:21;;;;;;;12.05;5.80;;;;;;;;;;5009567;28;20038;-77
2024/01/02 10:43:49;;;;;;;9.90;5.82;;;;;;;;;;5024016;28;20026;-78
2024/01/02 10:46:24;;;;;;;13.40;6.05;;;;;;;;;;5027514;28;20045;-77
2024/01/02 10:49:08;;;;;;;12.88;6.22;;;;;;;;;;5026150;28;20068;-78
2024/01/02 10:51:38;;;;;;;13.30;6.30;;;;;;;;;;5020559;28;20068;-78
2024/01/02 10:54:05;;;;;;;11.15;5.65;;;;;;;;;;5008016;28;20600;-77
2024/01/02 10:56:40;;;;;;;12.20;6.40;;;;;;;;;;5040728;28;20044;-78
2024/01/02 10:59:35;;;;;;;13.68;6.60;;;;;;;;;;5026602;28;20048;-78
2024/01/02 11:02:13;;;;;;;12.43;6.60;;;;;;;;;;5014966;28;20064;-78
2024/01/02 11:04:42;;;;;;;11.75;6.47;;;;;;;;;;5012610;28;20037;-78
2024/01/02 11:07:09;;;;;;;12.65;6.07;;;;;;;;;;5029649;28;20026;-77
2024/01/02 11:09:49;;;;;;;12.10;6.10;;;;;;;;;;5017334;28;20572;-78
2024/01/02 11:12:15;;;;;;;12.93;6.85;;;;;;;;;;5031012;28;20124;-78
2024/01/02 11:14:40;;;;;;;11.55;5.80;;;;;;;;;;5029679;28;20108;-76
2024/01/02 11:17:06;;;;;;;12.10;6.22;;;;;;;;;;5026061;28;20033;-77
2024/01/02 11:19:33;;;;;;;12.05;5.72;;;;;;;;;;5028609;28;20124;-78
2024/01/02 11:22:01;;;;;;;9.38;4.78;;;;;;;;;;5030487;28;20041;-78
2024/01/02 11:24:27;;;;;;;10.00;5.78;;;;;;;;;;5027752;28;20025;-77
2024/01/02 11:26:54;;;;;;;11.48;5.45;;;;;;;;;;5012965;28;20053;-77
2024/01/02 11:29:21;;;;;;;10.30;5.50;;;;;;;;;;5027953;28;20067;-77
2024/01/02 11:31:48;;;;;;;11.10;4.97;;;;;;;;;;5027075;28;20033;-78
2024/01/02 11:34:27;;;;;;;10.32;5.53;;;;;;;;;;5026887;28;20097;-78
2024/01/02 11:37:02;;;;;;;11.40;6.13;;;;;;;;;;5025027;28;20061;-77
2024/01/02 11:39:50;;;;;;;11.45;4.90;;;;;;;;;;5027327;28;20040;-79
2024/01/02 11:42:19;;;;;;;11.63;5.55;;;;;;;;;;5013455;28;20087;-77
2024/01/02 11:45:01;;;;;;;10.05;5.07;;;;;;;;;;5024727;28;20483;-79
2024/01/02 11:47:45;;;;;;;13.40;6.07;;;;;;;;;;5025649;28;20540;-78
2024/01/02 11:50:12;;;;;;;11.23;5.90;;;;;;;;;;5027507;28;20037;-77
2024/01/02 11:52:57;;;;;;;14.10;6.10;;;;;;;;;;5010363;28;20477;-77
2024/01/02 11:55:45;;;;;;;9.88;5.53;;;;;;;;;;5028421;28;20100;-76
2024/01/02 11:58:29;;;;;;;11.05;5.68;;;;;;;;;;4994998;28;20208;-77
2024/01/02 12:01:01;;;;;;;5.47;3.28;;;;;;;;;;5029751;28;20079;-77
2024/01/02 12:03:45;;;;;;;12.52;5.60;;;;;;;;;;5019654;28;20053;-79
2024/01/02 12:06:22;;;;;;;10.98;5.30;;;;;;;;;;5027530;28;20640;-77
2024/01/02 12:08:49;;;;;;;13.25;6.00;;;;;;;;;;5008953;28;20079;-78
2024/01/02 12:11:17;;;;;;;8.93;4.90;;;;;;;;;;5011297;28;20444;-78
2024/01/02 12:14:03;;;;;;;9.50;5.47;;;;;;;;;;5012026;28;20040;-78
2024/01/02 12:16:29;;;;;;;;;;;;;;;;;;5009306;28;20099;-76
2024/01/02 12:18:54;;;;;;;13.07;5.37;;;;;;;;;;5029019;28;20288;-77
2024/01/02 12:21:23;;;;;;;9.10;4.70;;;;;;;;;;5012636;28;20526;-77
2024/01/02 12:23:49;;;;;;;9.50;4.57;;;;;;;;;;5008215;28;20525;-78
2024/01/02 12:26:16;;;;;;;9.10;4.38;;;;;;;;;;5029561;28;20042;-77
2024/01/02 12:28:41;;;;;;;9.85;5.05;;;;;;;;;;5009775;28;20414;-78
2024/01/02 12:31:07;;;;;;;12.45;4.32;;;;;;;;;;5020450;28;20033;-78
2024/01/02 12:33:36;;;;;;;7.97;4.50;;;;;;;;;;5020511;28;20056;-77
2024/01/02 12:36:11;;;;;;;8.38;4.50;;;;;;;;;;5025917;28;20061;-77
2024/01/02 12:38:46;;;;;;;9.88;4.68;;;;;;;;;;5026995;28;20033;-76
2024/01/02 12:41:11;;;;;;;9.95;5.78;;;;;;;;;;5028745;28;20175;-78
2024/01/02 12:43:37;;;;;;;9.30;4.45;;;;;;;;;;5021455;28;20025;-77
2024/01/02 12:46:02;;;;;;;8.50;4.28;;;;;;;;;;5025413;28;20145;-79
2024/01/02 12:48:29;;;;;;;8.68;4.07;;;;;;;;;;5025538;28;20064;-76
2024/01/02 12:50:55;;;;;;;8.85;4.13;;;;;;;;;;5009926;28;20037;-77
2024/01/02 12:53:20;;;;;;;9.13;4.03;;;;;;;;;;5008887;28;20373;-77
2024/01/02 12:55:49;;;;;;;8.70;4.32;;;;;;;;;;5007459;28;20059;-77
2024/01/02 12:58:15;;;;;;;8.43;3.70;;;;;;;;;;5013162;28;20017;-77
2024/01/02 13:00:41;;;;;;;8.77;4.32;;;;;;;;;;5024701;28;20029;-77
2024/01/02 13:03:07;;;;;;;7.72;3.90;;;;;;;;;;5009839;28;20447;-78
2024/01/02 13:05:33;;;;;;;9.05;4.60;;;;;;;;;;5024185;28;20055;-77
2024/01/02 13:07:59;;;;;;;12.02;4.40;;;;;;;;;;5024165;28;20088;-78
2024/01/02 13:10:24;;;;;;;9.13;3.97;;;;;;;;;;5025013;28;20045;-76
2024/01/02 13:12:50;;;;;;;9.20;4.70;;;;;;;;;;5009627;28;20117;-78
2024/01/02 13:15:20;;;;;;;7.15;3.63;;;;;;;;;;5028782;28;20526;-78
2024/01/02 13:17:45;;;;;;;7.88;4.00;;;;;;;;;;5027004;28;20024;-77
2024/01/02 13:20:11;;;;;;;10.50;4.43;;;;;;;;;;5006410;28;20509;-77
2024/01/02 13:22:37;;;;;;;6.93;3.53;;;;;;;;;;5024531;28;20035;-78
2024/01/02 13:25:11;;;;;;;9.25;4.22;;;;;;;;;;5026221;28;20083;-77
2024/01/02 13:27:39;;;;;;;7.60;3.30;;;;;;;;;;5028515;28;20041;-76
2024/01/02 13:30:04;;;;;;;7.20;4.25;;;;;;;;;;5025357;28;20040;-77
2024/01/02 13:32:30;;;;;;;7.18;4.32;;;;;;;;;;5009227;28;20140;-77
2024/01/02 13:34:57;;;;;;;6.80;3.38;;;;;;;;;;5019524;28;20036;-77
2024/01/02 13:37:24;;;;;;;13.07;4.07;;;;;;;;;;5025362;28;20044;-78
2024/01/02 13:39:50;;;;;;;12.50;4.65;;;;;;;;;;5025810;28;20495;-78
2024/01/02 13:42:29;;;;;;;7.05;3.95;;;;;;;;;;5025140;28;20035;-77
2024/01/02 13:44:55;;;;;;;9.45;3.88;;;;;;;;;;5023275;28;20484;-78
2024/01/02 13:47:33;;;;;;;7.95;4.15;;;;;;;;;;5008108;28;20043;-76
2024/01/02 13:49:59;;;;;;;6.32;3.78;;;;;;;;;;5008800;28;20527;-78
2024/01/02 13:52:26;;;;;;;9.70;4.22;;;;;;;;;;5025626;28;20025;-77
2024/01/02 13:54:53;;;;;;;9.45;3.97;;;;;;;;;;4992563;28;20466;-77
2024/01/02 13:57:34;;;;;;;6.65;3.72;;;;;;;;;;5019364;28;20063;-79
2024/01/02 14:00:09;;;;;;;8.65;4.20;;;;;;;;;;5035041;28;20048;-76
2024/01/02 14:02:39;;;;;;;7.85;4.10;;;;;;;;;;5009063;28;20048;-79
2024/01/02 14:05:05;;;;;;;8.98;4.80;;;;;;;;;;4992572;28;20507;-76
2024/01/02 14:07:31;;;;;;;11.10;4.38;;;;;;;;;;5029764;28;20037;-78
2024/01/02 14:09:58;;;;;;;8.88;4.15;;;;;;;;;;5011104;28;20124;-78
2024/01/02 14:12:23;;;;;;;9.57;4.10;;;;;;;;;;5025558;28;20075;-77
2024/01/02 14:14:51;;;;;;;9.95;4.38;;;;;;;;;;5027936;28;20023;-79
2024/01/02 14:17:30;;;;;;;7.40;3.78;;;;;;;;;;5026348;28;20029;-77
2024/01/02 14:20:02;;;;;;;9.73;4.40;;;;;;;;;;5027290;28;20044;-78
2024/01/02 14:22:30;;;;;;;6.47;4.22;;;;;;;;;;5027075;28;20037;-79
2024/01/02 14:24:59;;;;;;;10.60;5.45;;;;;;;;;;5024675;28;20037;-77
2024/01/02 14:27:31;;;;;;;7.82;3.95;;;;;;;;;;5005920;28;20117;-78
2024/01/02 14:30:00;;;;;;;11.00;5.05;;;;;;;;;;5025589;28;20500;-79
2024/01/02 14:32:45;;;;;;;7.18;3.65;;;;;;;;;;5001729;28;20025;-78
2024/01/02 14:35:22;;;;;;;11.40;4.85;;;;;;;;;;5026056;28;20754;-78
2024/01/02 14:37:57;;;;;;;7.85;3.92;;;;;;;;;;5001275;28;20096;-78
2024/01/02 14:40:32;;;;;;;11.15;5.32;;;;;;;;;;5024807;28;20033;-77
2024/01/02 14:42:57;;;;;;;5.55;3.20;;;;;;;;;;5017215;28;20067;-80